Ralph, Alabama
Current Conditions -  °F | °C
As of 2:53 PM on Saturday 22 Nov 2014 (Local Time) from KTCL Reporting Station
Clear Clear  
Wind Chill: 69°   Ceiling: Unl
Heat Index: 69°   Visibility: 10mi
Dew Point: 50°   Wind: 8mph
Humidity: 51%   Direction: 150°SSE
Pressure: 30.15"   Gusts: NA
Location:  33.04°N, 87.77°W
Report Text: KTCL 222053Z 15007KT 10SM CLR 21/10 A3015 RMK AO2 SLP209 T02060100 56034
Loading
Personal Weather Stations






























Interactive Weather Map New forecast layout! Learn more

10-Day Weather Forecast

Advertisements
Track Severe Weather on mobile